Gdov, Russia
Current Conditions -  °F | °C
As of 12:50 AM on Friday 24 Oct 2014 (Local Time) from EETU Reporting Station
Clear Clear  
Wind Chill: 10°   Ceiling: Unl
Heat Index: 19°   Visibility: 6mi
Dew Point: 12°   Wind: 7mph
Humidity: 74%   Direction: 110°ESE
Pressure: 30.59"   Gusts: NA
Location:  58.74°N, 27.81°E
Report Text: EETU 232150Z 11006KT CAVOK M07/M11 Q1036
Loading
Personal Weather Stations






























Interactive Weather Map
Tropical Storm Tracking
New forecast layout! Learn more

10-Day Weather Forecast

Advertisements
Track Severe Weather on mobile